createdAt,value
2023-03-18T00:02:06.878Z,11.39
2023-03-18T00:04:35.532Z,11.38
2023-03-18T00:07:04.355Z,11.38
2023-03-18T00:09:33.010Z,11.38
2023-03-18T00:12:01.631Z,11.38
2023-03-18T00:14:29.942Z,11.38
2023-03-18T00:16:58.601Z,11.40
2023-03-18T00:19:28.166Z,11.40
2023-03-18T00:21:57.618Z,11.41
2023-03-18T00:24:27.776Z,11.41
2023-03-18T00:26:57.142Z,11.41
2023-03-18T00:29:26.066Z,11.42
2023-03-18T00:31:54.597Z,11.42
2023-03-18T00:34:23.115Z,11.43
2023-03-18T00:36:56.928Z,11.45
2023-03-18T00:39:28.797Z,11.45
2023-03-18T00:41:58.206Z,11.45
2023-03-18T00:44:27.303Z,11.44
2023-03-18T00:46:55.876Z,11.42
2023-03-18T00:49:24.966Z,11.41
2023-03-18T00:51:54.545Z,11.39
2023-03-18T00:54:24.729Z,11.35
2023-03-18T00:56:53.957Z,11.33
2023-03-18T00:59:22.540Z,11.32
2023-03-18T01:01:51.901Z,11.33
2023-03-18T01:04:21.449Z,11.35
2023-03-18T01:06:49.965Z,11.36
2023-03-18T01:09:19.756Z,11.37
2023-03-18T01:11:48.242Z,11.39
2023-03-18T01:14:16.891Z,11.40
2023-03-18T01:16:46.881Z,11.39
2023-03-18T01:19:15.994Z,11.37
2023-03-18T01:21:44.877Z,11.34
2023-03-18T01:24:13.518Z,11.31
2023-03-18T01:26:43.066Z,11.27
2023-03-18T01:29:12.446Z,11.25
2023-03-18T01:31:41.016Z,11.24
2023-03-18T01:34:16.412Z,11.22
2023-03-18T01:36:49.781Z,11.23
2023-03-18T01:39:19.189Z,11.23
2023-03-18T01:41:48.785Z,11.22
2023-03-18T01:44:24.696Z,11.16
2023-03-18T01:46:56.827Z,11.17
2023-03-18T01:49:32.490Z,11.18
2023-03-18T01:52:07.641Z,11.17
2023-03-18T01:54:44.574Z,11.16
2023-03-18T01:57:17.340Z,11.15
2023-03-18T01:59:49.637Z,11.12
2023-03-18T02:02:18.936Z,11.10
2023-03-18T02:04:51.101Z,11.10
2023-03-18T02:07:24.283Z,11.09
2023-03-18T02:09:54.185Z,11.09
2023-03-18T02:12:28.643Z,11.09
2023-03-18T02:15:02.549Z,11.09
2023-03-18T02:17:35.348Z,11.07
2023-03-18T02:20:22.424Z,11.06
2023-03-18T02:22:57.605Z,11.07
2023-03-18T02:25:40.291Z,11.07
2023-03-18T02:28:14.734Z,11.08
2023-03-18T02:30:47.485Z,11.10
2023-03-18T02:33:19.282Z,11.10
2023-03-18T02:35:54.744Z,11.09
2023-03-18T02:38:23.440Z,11.09
2023-03-18T02:40:52.346Z,11.09
2023-03-18T02:43:28.940Z,11.08
2023-03-18T02:46:13.889Z,11.06
2023-03-18T02:48:47.330Z,11.06
2023-03-18T02:51:17.703Z,11.07
2023-03-18T02:53:47.748Z,11.08
2023-03-18T02:56:16.347Z,11.10
2023-03-18T02:58:47.325Z,11.10
2023-03-18T03:01:17.467Z,11.10
2023-03-18T03:03:46.066Z,11.10
2023-03-18T03:06:15.801Z,11.10
2023-03-18T03:08:45.063Z,11.11
2023-03-18T03:11:14.145Z,11.10
2023-03-18T03:13:45.364Z,11.12
2023-03-18T03:16:18.552Z,11.10
2023-03-18T03:18:47.240Z,11.09
2023-03-18T03:21:16.966Z,11.05
2023-03-18T03:23:47.692Z,11.03
2023-03-18T03:26:16.916Z,10.97
2023-03-18T03:28:45.923Z,10.92
2023-03-18T03:31:17.300Z,10.86
2023-03-18T03:33:45.967Z,10.83
2023-03-18T03:36:16.973Z,10.83
2023-03-18T03:38:45.902Z,10.81
2023-03-18T03:41:15.808Z,10.80
2023-03-18T03:43:44.703Z,10.79
2023-03-18T03:46:13.325Z,10.80
2023-03-18T03:48:43.183Z,10.81
2023-03-18T03:51:15.816Z,10.82
2023-03-18T03:53:46.150Z,10.83
2023-03-18T03:56:15.669Z,10.84
2023-03-18T03:58:44.754Z,10.84
2023-03-18T04:01:13.589Z,10.85
2023-03-18T04:03:43.559Z,10.86
2023-03-18T04:06:13.196Z,10.87
2023-03-18T04:08:48.232Z,10.88
2023-03-18T04:11:17.159Z,10.88
2023-03-18T04:13:45.687Z,10.88
2023-03-18T04:16:14.684Z,10.86
2023-03-18T04:18:44.382Z,10.84
2023-03-18T04:21:13.118Z,10.81
2023-03-18T04:23:46.552Z,10.78
2023-03-18T04:26:15.115Z,10.76
2023-03-18T04:28:43.839Z,10.74
2023-03-18T04:31:16.658Z,10.77
2023-03-18T04:33:46.388Z,10.78
2023-03-18T04:36:15.515Z,10.78
2023-03-18T04:38:44.596Z,10.80
2023-03-18T04:41:13.093Z,10.81
2023-03-18T04:43:41.550Z,10.80
2023-03-18T04:46:12.026Z,10.81
2023-03-18T04:48:41.041Z,10.79
2023-03-18T04:51:12.572Z,10.76
2023-03-18T04:53:42.037Z,10.75
2023-03-18T04:56:11.743Z,10.73
2023-03-18T04:58:47.962Z,10.74
2023-03-18T05:01:21.116Z,10.75
2023-03-18T05:03:50.295Z,10.75
2023-03-18T05:06:27.684Z,10.76
2023-03-18T05:09:00.075Z,10.78
2023-03-18T05:11:33.623Z,10.78
2023-03-18T05:14:09.348Z,10.79
2023-03-18T05:16:45.982Z,10.80
2023-03-18T05:19:15.771Z,10.80
2023-03-18T05:21:52.797Z,10.81
2023-03-18T05:24:21.985Z,10.82
2023-03-18T05:26:50.526Z,10.83
2023-03-18T05:29:21.928Z,10.83
2023-03-18T05:32:00.328Z,10.83
2023-03-18T05:34:31.354Z,10.84
2023-03-18T05:37:02.079Z,10.83
2023-03-18T05:39:31.472Z,10.84
2023-03-18T05:42:00.152Z,10.85
2023-03-18T05:44:30.738Z,10.85
2023-03-18T05:47:02.716Z,10.87
2023-03-18T05:49:57.303Z,10.86
2023-03-18T05:52:28.328Z,10.87
2023-03-18T05:55:01.561Z,10.88
2023-03-18T05:57:34.680Z,10.89
2023-03-18T06:00:08.188Z,10.89
2023-03-18T06:02:47.336Z,10.91
2023-03-18T06:05:18.400Z,10.91
2023-03-18T06:07:49.485Z,10.92
2023-03-18T06:10:18.351Z,10.92
2023-03-18T06:12:49.253Z,10.91
2023-03-18T06:15:21.202Z,10.92
2023-03-18T06:17:50.476Z,10.91
2023-03-18T06:20:19.716Z,10.92
2023-03-18T06:22:50.167Z,10.94
2023-03-18T06:25:21.136Z,10.95
2023-03-18T06:27:50.972Z,10.96
2023-03-18T06:30:22.422Z,10.95
2023-03-18T06:32:51.651Z,10.95
2023-03-18T06:35:20.552Z,10.93
2023-03-18T06:37:50.196Z,10.91
2023-03-18T06:40:18.733Z,10.89
2023-03-18T06:42:48.921Z,10.86
2023-03-18T06:45:28.363Z,10.83
2023-03-18T06:48:05.752Z,10.83
2023-03-18T06:50:37.045Z,10.84
2023-03-18T06:53:07.402Z,10.85
2023-03-18T06:55:36.922Z,10.89
2023-03-18T06:58:06.571Z,10.95
2023-03-18T07:00:45.446Z,10.99
2023-03-18T07:03:19.732Z,11.04
2023-03-18T07:05:48.674Z,11.10
2023-03-18T07:08:18.334Z,11.14
2023-03-18T07:10:47.143Z,11.18
2023-03-18T07:13:17.304Z,11.32
2023-03-18T07:15:46.495Z,11.47
2023-03-18T07:18:15.115Z,11.70
2023-03-18T07:20:43.829Z,12.01
2023-03-18T07:23:12.364Z,12.34
2023-03-18T07:25:44.638Z,12.70
2023-03-18T07:28:13.211Z,12.90
2023-03-18T07:30:41.741Z,13.01
2023-03-18T07:33:10.383Z,13.09
2023-03-18T07:35:41.015Z,13.08
2023-03-18T07:38:10.461Z,13.01
2023-03-18T07:40:38.935Z,12.98
2023-03-18T07:43:09.177Z,13.08
2023-03-18T07:45:38.243Z,13.21
2023-03-18T07:48:07.619Z,13.44
2023-03-18T07:50:36.409Z,13.57
2023-03-18T07:53:04.621Z,13.67
2023-03-18T07:55:34.566Z,13.96
2023-03-18T07:58:04.610Z,14.40
2023-03-18T08:00:34.228Z,14.88
2023-03-18T08:03:03.861Z,15.11
2023-03-18T08:05:34.245Z,15.12
2023-03-18T08:08:04.371Z,15.07
2023-03-18T08:10:32.889Z,15.02
2023-03-18T08:13:01.263Z,15.17
2023-03-18T08:15:30.210Z,15.68
2023-03-18T08:18:00.048Z,16.22
2023-03-18T08:20:28.781Z,16.72
2023-03-18T08:22:57.148Z,17.26
2023-03-18T08:25:25.682Z,17.68
2023-03-18T08:27:54.288Z,18.04
2023-03-18T08:30:25.474Z,18.32
2023-03-18T08:32:54.105Z,18.53
2023-03-18T08:35:23.671Z,18.76
2023-03-18T08:37:52.456Z,18.98
2023-03-18T08:40:20.946Z,19.19
2023-03-18T08:42:49.658Z,19.41
2023-03-18T08:45:18.101Z,19.52
2023-03-18T08:47:47.148Z,19.58
2023-03-18T08:50:15.723Z,19.68
2023-03-18T08:52:46.075Z,19.75
2023-03-18T08:55:14.319Z,19.82
2023-03-18T08:57:42.932Z,19.95
2023-03-18T09:00:13.401Z,20.16
2023-03-18T09:02:41.654Z,20.26
2023-03-18T09:05:10.492Z,20.37
2023-03-18T09:07:39.003Z,20.44
2023-03-18T09:10:10.273Z,20.56
2023-03-18T09:12:38.801Z,20.59
2023-03-18T09:15:10.027Z,20.65
2023-03-18T09:17:56.474Z,20.73
2023-03-18T09:20:28.926Z,20.96
2023-03-18T09:22:57.577Z,21.11
2023-03-18T09:25:27.865Z,21.13
2023-03-18T09:27:56.515Z,21.20
2023-03-18T09:30:26.703Z,21.30
2023-03-18T09:32:56.521Z,21.42
2023-03-18T09:35:25.292Z,21.50
2023-03-18T09:37:53.866Z,21.48
2023-03-18T09:40:29.417Z,21.48
2023-03-18T09:43:13.487Z,21.51
2023-03-18T09:45:57.150Z,21.50
2023-03-18T09:48:55.684Z,21.14
2023-03-18T09:51:41.883Z,21.07
2023-03-18T09:54:17.481Z,21.20
2023-03-18T09:56:48.334Z,21.33
2023-03-18T09:59:25.442Z,21.33
2023-03-18T10:01:56.665Z,21.36
2023-03-18T10:04:30.778Z,21.36
2023-03-18T10:07:05.289Z,21.55
2023-03-18T10:09:42.625Z,21.73
2023-03-18T10:12:22.677Z,21.91
2023-03-18T10:15:05.287Z,22.13
2023-03-18T10:17:40.033Z,22.16
2023-03-18T10:20:16.890Z,22.12
2023-03-18T10:23:12.826Z,22.23
2023-03-18T10:25:48.562Z,22.30
2023-03-18T10:28:49.163Z,22.27
2023-03-18T10:31:34.211Z,22.40
2023-03-18T10:34:06.435Z,22.54
2023-03-18T10:36:50.944Z,22.71
2023-03-18T10:39:23.893Z,22.92
2023-03-18T10:41:55.005Z,23.08
2023-03-18T10:44:30.485Z,23.03
2023-03-18T10:47:03.130Z,22.95
2023-03-18T10:49:36.506Z,22.74
2023-03-18T10:52:15.271Z,22.55
2023-03-18T10:54:50.874Z,22.33
2023-03-18T10:57:21.460Z,22.25
2023-03-18T10:59:52.706Z,22.43
2023-03-18T11:02:27.620Z,22.68
2023-03-18T11:05:00.816Z,22.76
2023-03-18T11:07:31.189Z,22.78
2023-03-18T11:10:15.065Z,22.95
2023-03-18T11:12:44.754Z,23.16
2023-03-18T11:15:14.658Z,23.18
2023-03-18T11:17:44.044Z,23.21
2023-03-18T11:20:24.630Z,23.28
2023-03-18T11:22:57.444Z,23.36
2023-03-18T11:25:29.189Z,23.54
2023-03-18T11:28:03.658Z,23.68
2023-03-18T11:30:46.088Z,23.97
2023-03-18T11:33:17.360Z,24.25
2023-03-18T11:35:48.295Z,24.51
2023-03-18T11:38:20.886Z,24.84
2023-03-18T11:40:49.897Z,24.98
2023-03-18T11:43:22.215Z,25.06
2023-03-18T11:45:58.713Z,25.10
2023-03-18T11:48:35.650Z,25.16
2023-03-18T11:51:29.177Z,25.23
2023-03-18T11:54:20.232Z,25.47
2023-03-18T11:56:52.607Z,25.65
2023-03-18T11:59:33.939Z,25.45
2023-03-18T12:02:48.357Z,25.36
2023-03-18T12:05:53.327Z,25.66
2023-03-18T12:08:33.966Z,25.59
2023-03-18T12:11:12.885Z,25.11
2023-03-18T12:13:55.519Z,24.48
2023-03-18T12:16:48.694Z,24.04
2023-03-18T12:19:55.081Z,23.71
2023-03-18T12:23:13.620Z,23.74
2023-03-18T12:26:01.862Z,23.59
2023-03-18T12:28:43.016Z,23.56
2023-03-18T12:31:46.637Z,23.66
2023-03-18T12:34:31.854Z,23.81
2023-03-18T12:37:22.336Z,23.74
2023-03-18T12:40:31.134Z,23.49
2023-03-18T12:43:46.464Z,23.30
2023-03-18T12:46:27.173Z,23.05
2023-03-18T12:49:03.740Z,22.88
2023-03-18T12:51:41.933Z,22.57
2023-03-18T12:54:20.561Z,22.26
2023-03-18T12:56:53.876Z,22.02
2023-03-18T12:59:32.548Z,21.88
2023-03-18T13:02:37.218Z,21.82
2023-03-18T13:05:16.795Z,21.83
2023-03-18T13:07:50.629Z,21.70
2023-03-18T13:10:24.308Z,21.63
2023-03-18T13:12:56.446Z,21.54
2023-03-18T13:15:32.819Z,21.47
2023-03-18T13:18:14.639Z,21.53
2023-03-18T13:20:44.814Z,21.71
2023-03-18T13:23:53.388Z,21.85
2023-03-18T13:26:35.377Z,21.91
2023-03-18T13:29:19.894Z,21.96
2023-03-18T13:31:58.804Z,22.02
2023-03-18T13:34:57.586Z,22.06
2023-03-18T13:37:54.634Z,22.39
2023-03-18T13:40:42.692Z,22.79
2023-03-18T13:43:16.814Z,23.01
2023-03-18T13:45:48.876Z,23.02
2023-03-18T13:48:19.694Z,23.18
2023-03-18T13:50:51.622Z,23.35
2023-03-18T13:53:26.428Z,23.42
2023-03-18T13:56:05.052Z,23.38
2023-03-18T13:58:45.179Z,23.18
2023-03-18T14:01:29.705Z,22.78
2023-03-18T14:04:03.038Z,22.54
2023-03-18T14:06:57.750Z,22.45
2023-03-18T14:09:47.202Z,22.36
2023-03-18T14:12:39.818Z,22.23
2023-03-18T14:15:38.780Z,22.23
2023-03-18T14:18:28.009Z,22.43
2023-03-18T14:21:04.595Z,22.84
2023-03-18T14:23:44.197Z,23.04
2023-03-18T14:26:24.508Z,23.29
2023-03-18T14:29:03.443Z,23.32
2023-03-18T14:31:51.895Z,23.27
2023-03-18T14:34:33.873Z,23.08
2023-03-18T14:37:31.301Z,22.85
2023-03-18T14:40:08.844Z,22.63
2023-03-18T14:42:56.672Z,22.36
2023-03-18T14:45:29.171Z,22.09
2023-03-18T14:48:01.573Z,21.89
2023-03-18T14:50:39.275Z,21.71
2023-03-18T14:53:18.092Z,21.54
2023-03-18T14:55:46.613Z,21.56
2023-03-18T14:58:18.239Z,21.68
2023-03-18T15:00:49.646Z,21.71
2023-03-18T15:03:25.526Z,21.75
2023-03-18T15:06:00.370Z,21.70
2023-03-18T15:08:46.675Z,21.77
2023-03-18T15:11:19.320Z,21.86
2023-03-18T15:13:48.156Z,21.93
2023-03-18T15:16:23.033Z,21.78
2023-03-18T15:18:56.194Z,21.54
2023-03-18T15:21:30.172Z,21.24
2023-03-18T15:24:01.906Z,21.01
2023-03-18T15:26:34.342Z,20.86
2023-03-18T15:29:21.893Z,20.85
2023-03-18T15:31:50.932Z,21.06
2023-03-18T15:34:23.307Z,21.25
2023-03-18T15:36:56.943Z,21.43
2023-03-18T15:39:35.606Z,21.50
2023-03-18T15:42:13.236Z,21.42
2023-03-18T15:44:44.077Z,21.24
2023-03-18T15:47:17.611Z,21.01
2023-03-18T15:49:54.414Z,20.78
2023-03-18T15:52:26.713Z,20.64
2023-03-18T15:54:55.582Z,20.54
2023-03-18T15:57:33.134Z,20.49
2023-03-18T16:00:01.793Z,20.47
2023-03-18T16:02:40.377Z,20.44
2023-03-18T16:05:19.082Z,20.37
2023-03-18T16:07:48.091Z,20.33
2023-03-18T16:10:22.227Z,20.40
2023-03-18T16:12:54.647Z,20.49
2023-03-18T16:15:26.322Z,20.49
2023-03-18T16:17:56.815Z,20.40
2023-03-18T16:20:28.832Z,20.24
2023-03-18T16:22:59.711Z,20.10
2023-03-18T16:25:29.052Z,19.92
2023-03-18T16:28:00.704Z,19.80
2023-03-18T16:30:33.128Z,19.78
2023-03-18T16:33:01.475Z,19.77
2023-03-18T16:35:36.073Z,19.78
2023-03-18T16:38:04.558Z,19.83
2023-03-18T16:40:33.777Z,19.84
2023-03-18T16:43:02.222Z,19.86
2023-03-18T16:45:33.838Z,19.84
2023-03-18T16:48:06.918Z,19.80
2023-03-18T16:50:39.315Z,19.79
2023-03-18T16:53:17.351Z,19.79
2023-03-18T16:55:47.051Z,19.76
2023-03-18T16:58:19.520Z,19.71
2023-03-18T17:00:49.713Z,19.60
2023-03-18T17:03:20.139Z,19.51
2023-03-18T17:05:52.043Z,19.41
2023-03-18T17:08:21.885Z,19.29
2023-03-18T17:10:53.667Z,19.15
2023-03-18T17:13:25.928Z,19.03
2023-03-18T17:15:55.027Z,18.86
2023-03-18T17:18:25.466Z,18.71
2023-03-18T17:20:55.332Z,18.54
2023-03-18T17:23:26.765Z,18.41
2023-03-18T17:25:56.913Z,18.30
2023-03-18T17:28:34.450Z,18.16
2023-03-18T17:31:03.402Z,18.05
2023-03-18T17:33:34.616Z,17.96
2023-03-18T17:36:06.079Z,17.84
2023-03-18T17:38:35.455Z,17.73
2023-03-18T17:41:07.289Z,17.61
2023-03-18T17:43:37.878Z,17.49
2023-03-18T17:46:06.992Z,17.39
2023-03-18T17:48:37.389Z,17.29
2023-03-18T17:51:11.989Z,17.21
2023-03-18T17:53:43.075Z,17.15
2023-03-18T17:56:15.737Z,17.08
2023-03-18T17:58:46.752Z,17.00
2023-03-18T18:01:18.299Z,16.93
2023-03-18T18:03:47.584Z,16.86
2023-03-18T18:06:21.844Z,16.80
2023-03-18T18:08:50.915Z,16.76
2023-03-18T18:11:22.846Z,16.70
2023-03-18T18:13:53.060Z,16.65
2023-03-18T18:16:21.937Z,16.59
2023-03-18T18:18:50.840Z,16.54
2023-03-18T18:21:23.585Z,16.47
2023-03-18T18:23:52.369Z,16.41
2023-03-18T18:26:22.940Z,16.34
2023-03-18T18:28:53.868Z,16.28
2023-03-18T18:31:23.827Z,16.22
2023-03-18T18:33:54.781Z,16.15
2023-03-18T18:36:27.973Z,16.09
2023-03-18T18:38:56.831Z,16.01
2023-03-18T18:41:25.902Z,15.96
2023-03-18T18:43:55.512Z,15.92
2023-03-18T18:46:24.993Z,15.87
2023-03-18T18:48:53.887Z,15.82
2023-03-18T18:51:25.531Z,15.76
2023-03-18T18:53:55.685Z,15.69
2023-03-18T18:56:32.132Z,15.64
2023-03-18T18:59:01.417Z,15.56
2023-03-18T19:01:30.955Z,15.50
2023-03-18T19:03:59.290Z,15.43
2023-03-18T19:06:31.548Z,15.34
2023-03-18T19:09:03.876Z,15.27
2023-03-18T19:11:33.314Z,15.19
2023-03-18T19:14:21.884Z,15.13
2023-03-18T19:16:50.493Z,15.10
2023-03-18T19:19:22.074Z,15.02
2023-03-18T19:21:51.829Z,14.95
2023-03-18T19:24:28.029Z,14.86
2023-03-18T19:26:58.507Z,14.77
2023-03-18T19:29:27.568Z,14.69
2023-03-18T19:31:56.191Z,14.64
2023-03-18T19:34:24.887Z,14.57
2023-03-18T19:36:56.664Z,14.52
2023-03-18T19:39:27.676Z,14.46
2023-03-18T19:41:56.230Z,14.37
2023-03-18T19:44:26.681Z,14.30
2023-03-18T19:46:58.437Z,14.23
2023-03-18T19:49:32.695Z,14.15
2023-03-18T19:52:03.661Z,14.10
2023-03-18T19:54:34.798Z,14.05
2023-03-18T19:57:06.712Z,13.99
2023-03-18T19:59:39.670Z,13.96
2023-03-18T20:02:23.393Z,13.90
2023-03-18T20:04:53.340Z,13.88
2023-03-18T20:07:25.594Z,13.86
2023-03-18T20:09:55.101Z,13.81
2023-03-18T20:12:27.173Z,13.76
2023-03-18T20:14:55.732Z,13.72
2023-03-18T20:17:37.184Z,13.72
2023-03-18T20:20:07.739Z,13.71
2023-03-18T20:22:41.755Z,13.68
2023-03-18T20:25:19.978Z,13.61
2023-03-18T20:27:50.486Z,13.55
2023-03-18T20:30:31.580Z,13.47
2023-03-18T20:33:03.995Z,13.45
2023-03-18T20:35:34.672Z,13.42
2023-03-18T20:38:14.162Z,13.42
2023-03-18T20:40:46.217Z,13.42
2023-03-18T20:43:16.605Z,13.44
2023-03-18T20:45:45.530Z,13.45
2023-03-18T20:48:14.248Z,13.45
2023-03-18T20:50:42.922Z,13.45
2023-03-18T20:53:18.684Z,13.44
2023-03-18T20:55:47.459Z,13.46
2023-03-18T20:58:18.030Z,13.43
2023-03-18T21:00:47.535Z,13.40
2023-03-18T21:03:24.385Z,13.38
2023-03-18T21:05:56.065Z,13.35
2023-03-18T21:08:27.114Z,13.33
2023-03-18T21:10:56.044Z,13.31
2023-03-18T21:13:29.007Z,13.28
2023-03-18T21:15:58.965Z,13.22
2023-03-18T21:18:27.653Z,13.18
2023-03-18T21:20:56.947Z,13.16
2023-03-18T21:23:28.535Z,13.10
2023-03-18T21:25:57.717Z,13.05
2023-03-18T21:28:28.345Z,13.02
2023-03-18T21:30:58.519Z,13.00
2023-03-18T21:33:29.886Z,12.95
2023-03-18T21:35:58.882Z,12.89
2023-03-18T21:38:31.545Z,12.83
2023-03-18T21:41:01.925Z,12.75
2023-03-18T21:43:34.029Z,12.66
2023-03-18T21:46:03.931Z,12.58
2023-03-18T21:48:32.627Z,12.54
2023-03-18T21:51:01.358Z,12.50
2023-03-18T21:53:31.128Z,12.45
2023-03-18T21:56:00.129Z,12.43
2023-03-18T21:58:29.277Z,12.42
2023-03-18T22:01:00.627Z,12.41
2023-03-18T22:03:31.475Z,12.40
2023-03-18T22:06:00.019Z,12.42
2023-03-18T22:08:28.322Z,12.42
2023-03-18T22:10:58.042Z,12.42
2023-03-18T22:13:27.902Z,12.41
2023-03-18T22:15:57.650Z,12.38
2023-03-18T22:18:26.353Z,12.36
2023-03-18T22:20:54.802Z,12.34
2023-03-18T22:23:25.326Z,12.30
2023-03-18T22:25:57.448Z,12.26
2023-03-18T22:28:28.025Z,12.23
2023-03-18T22:30:57.037Z,12.17
2023-03-18T22:33:29.062Z,12.13
2023-03-18T22:35:58.165Z,12.06
2023-03-18T22:38:27.676Z,12.02
2023-03-18T22:40:58.722Z,11.99
2023-03-18T22:43:33.373Z,11.97
2023-03-18T22:46:04.286Z,11.98
2023-03-18T22:48:33.242Z,11.97
2023-03-18T22:51:02.608Z,11.95
2023-03-18T22:53:33.846Z,11.91
2023-03-18T22:56:10.047Z,11.84
2023-03-18T22:58:39.387Z,11.81
2023-03-18T23:01:08.203Z,11.81
2023-03-18T23:03:40.335Z,11.79
2023-03-18T23:06:14.523Z,11.78
2023-03-18T23:08:43.249Z,11.77
2023-03-18T23:11:13.348Z,11.75
2023-03-18T23:13:43.582Z,11.73
2023-03-18T23:16:17.024Z,11.71
2023-03-18T23:18:45.941Z,11.73
2023-03-18T23:21:18.140Z,11.72
2023-03-18T23:23:46.550Z,11.72
2023-03-18T23:26:16.839Z,11.71
2023-03-18T23:28:45.844Z,11.71
2023-03-18T23:31:16.514Z,11.73
2023-03-18T23:33:45.750Z,11.74
2023-03-18T23:36:14.456Z,11.74
2023-03-18T23:38:43.072Z,11.75
2023-03-18T23:41:11.640Z,11.72
2023-03-18T23:43:41.327Z,11.68
2023-03-18T23:46:09.865Z,11.65
2023-03-18T23:48:38.400Z,11.62
2023-03-18T23:51:07.057Z,11.60
2023-03-18T23:53:35.787Z,11.59
2023-03-18T23:56:04.429Z,11.59
2023-03-18T23:58:32.930Z,11.58
